createdAt,value
2022-09-01T00:00:01.941Z,19.40
2022-09-01T00:05:08.772Z,19.40
2022-09-01T00:10:12.236Z,19.40
2022-09-01T00:15:17.337Z,19.50
2022-09-01T00:20:20.980Z,19.20
2022-09-01T00:25:25.247Z,19.00
2022-09-01T00:30:29.526Z,19.00
2022-09-01T00:35:32.459Z,19.10
2022-09-01T00:40:40.419Z,19.00
2022-09-01T00:45:45.084Z,19.00
2022-09-01T00:50:49.480Z,19.00
2022-09-01T00:55:53.952Z,19.00
2022-09-01T01:00:58.769Z,19.10
2022-09-01T01:06:07.980Z,18.90
2022-09-01T01:11:17.784Z,18.90
2022-09-01T01:16:23.407Z,18.60
2022-09-01T01:21:52.169Z,18.80
2022-09-01T01:26:59.663Z,18.60
2022-09-01T01:32:09.387Z,18.70
2022-09-01T01:37:14.075Z,18.70
2022-09-01T01:42:18.679Z,18.60
2022-09-01T01:47:21.937Z,18.50
2022-09-01T01:52:26.301Z,18.50
2022-09-01T01:57:35.885Z,18.40
2022-09-01T02:02:39.978Z,18.50
2022-09-01T02:07:43.416Z,18.40
2022-09-01T02:12:49.290Z,18.30
2022-09-01T02:18:00.617Z,18.20
2022-09-01T02:23:11.646Z,18.30
2022-09-01T02:28:17.952Z,18.30
2022-09-01T02:33:21.779Z,18.20
2022-09-01T02:38:29.716Z,18.20
2022-09-01T02:43:35.472Z,18.10
2022-09-01T02:48:46.196Z,18.10
2022-09-01T02:53:52.218Z,18.10
2022-09-01T02:58:57.059Z,18.20
2022-09-01T03:04:05.725Z,18.10
2022-09-01T03:09:11.581Z,17.60
2022-09-01T03:14:15.983Z,17.80
2022-09-01T03:19:19.428Z,17.80
2022-09-01T03:24:23.133Z,17.90
2022-09-01T03:29:28.915Z,17.90
2022-09-01T03:34:34.402Z,17.80
2022-09-01T03:39:37.679Z,17.90
2022-09-01T03:44:44.199Z,18.00
2022-09-01T03:49:51.242Z,17.90
2022-09-01T03:54:54.264Z,17.70
2022-09-01T03:59:59.088Z,17.60
2022-09-01T04:05:09.851Z,17.60
2022-09-01T04:10:13.193Z,17.00
2022-09-01T04:15:19.557Z,17.00
2022-09-01T04:20:23.508Z,17.20
2022-09-01T04:25:26.777Z,17.20
2022-09-01T04:30:33.528Z,17.20
2022-09-01T04:35:39.370Z,17.40
2022-09-01T04:40:43.059Z,17.40
2022-09-01T04:45:52.067Z,17.30
2022-09-01T04:50:56.470Z,17.20
2022-09-01T04:56:05.580Z,17.20
2022-09-01T05:01:18.086Z,17.20
2022-09-01T05:06:21.730Z,17.20
2022-09-01T05:11:29.575Z,17.20
2022-09-01T05:16:42.694Z,17.00
2022-09-01T05:21:47.581Z,16.70
2022-09-01T05:26:50.804Z,16.60
2022-09-01T05:31:56.450Z,16.70
2022-09-01T05:37:00.759Z,16.90
2022-09-01T05:42:08.100Z,17.10
2022-09-01T05:47:20.794Z,17.30
2022-09-01T05:52:26.280Z,17.30
2022-09-01T05:57:34.999Z,17.30
2022-09-01T06:02:41.047Z,17.40
2022-09-01T06:07:45.497Z,17.30
2022-09-01T06:12:50.619Z,17.40
2022-09-01T06:17:59.379Z,17.30
2022-09-01T06:23:03.751Z,17.40
2022-09-01T06:28:08.593Z,17.50
2022-09-01T06:33:14.173Z,17.60
2022-09-01T06:38:22.951Z,17.60
2022-09-01T06:43:25.996Z,17.60
2022-09-01T06:48:32.496Z,17.60
2022-09-01T06:53:40.145Z,17.60
2022-09-01T06:58:56.316Z,17.80
2022-09-01T07:04:02.602Z,17.90
2022-09-01T07:21:02.789Z,18.40
2022-09-01T07:26:07.720Z,18.60
2022-09-01T07:43:06.205Z,19.00
2022-09-01T07:49:01.904Z,19.20
2022-09-01T07:54:14.057Z,19.30
2022-09-01T07:59:18.424Z,19.30
2022-09-01T08:04:29.642Z,19.40
2022-09-01T08:09:43.730Z,19.70
2022-09-01T08:20:20.869Z,19.60
2022-09-01T08:25:38.520Z,19.70
2022-09-01T08:30:47.157Z,20.00
2022-09-01T08:35:57.245Z,20.50
2022-09-01T08:41:15.016Z,20.40
2022-09-01T08:46:45.020Z,20.40
2022-09-01T08:51:53.574Z,20.60
2022-09-01T08:57:06.926Z,20.60
2022-09-01T09:02:45.245Z,20.70
2022-09-01T09:08:33.576Z,20.80
2022-09-01T09:14:07.217Z,20.90
2022-09-01T09:19:18.436Z,21.00
2022-09-01T09:24:36.954Z,21.20
2022-09-01T09:29:49.103Z,21.30
2022-09-01T09:34:52.786Z,21.20
2022-09-01T09:40:10.402Z,21.40
2022-09-01T09:45:24.908Z,21.60
2022-09-01T09:50:38.106Z,22.10
2022-09-01T09:55:56.513Z,21.90
2022-09-01T10:01:17.743Z,22.00
2022-09-01T10:06:35.787Z,22.40
2022-09-01T10:11:41.914Z,22.70
2022-09-01T10:16:55.360Z,22.40
2022-09-01T10:21:58.624Z,22.60
2022-09-01T10:27:05.248Z,22.90
2022-09-01T10:32:37.190Z,23.10
2022-09-01T10:37:53.514Z,23.20
2022-09-01T10:42:58.633Z,23.40
2022-09-01T10:48:46.367Z,23.40
2022-09-01T10:53:55.990Z,23.30
2022-09-01T11:05:05.205Z,23.40
2022-09-01T11:10:38.384Z,23.30
2022-09-01T11:15:45.558Z,23.60
2022-09-01T11:20:48.798Z,23.80
2022-09-01T11:31:26.720Z,23.80
2022-09-01T11:36:34.717Z,24.20
2022-09-01T11:41:55.800Z,24.20
2022-09-01T11:47:05.138Z,24.10
2022-09-01T11:52:08.139Z,24.00
2022-09-01T11:57:32.056Z,23.90
2022-09-01T12:02:38.031Z,24.10
2022-09-01T12:07:43.652Z,24.20
2022-09-01T12:12:48.723Z,24.10
2022-09-01T12:17:53.267Z,24.10
2022-09-01T12:22:56.691Z,24.10
2022-09-01T12:28:02.847Z,24.40
2022-09-01T12:33:23.909Z,24.60
2022-09-01T12:38:31.678Z,24.60
2022-09-01T12:43:39.542Z,24.60
2022-09-01T12:48:42.865Z,24.50
2022-09-01T12:53:52.856Z,24.50
2022-09-01T12:59:14.329Z,24.50
2022-09-01T13:04:32.797Z,24.60
2022-09-01T13:09:35.825Z,24.50
2022-09-01T13:14:41.100Z,24.60
2022-09-01T13:19:44.121Z,24.60
2022-09-01T13:24:47.097Z,24.60
2022-09-01T13:29:51.983Z,24.90
2022-09-01T13:34:55.214Z,24.90
2022-09-01T13:39:58.276Z,24.80
2022-09-01T13:45:02.711Z,24.80
2022-09-01T13:50:08.342Z,24.80
2022-09-01T13:55:15.460Z,24.90
2022-09-01T14:00:21.823Z,25.20
2022-09-01T14:05:26.931Z,25.50
2022-09-01T14:10:31.891Z,25.50
2022-09-01T14:15:37.405Z,25.80
2022-09-01T14:20:43.477Z,25.60
2022-09-01T14:25:48.941Z,25.70
2022-09-01T14:35:55.302Z,25.80
2022-09-01T14:40:58.394Z,25.80
2022-09-01T14:46:10.804Z,25.70
2022-09-01T14:51:22.332Z,26.00
2022-09-01T14:56:26.548Z,26.00
2022-09-01T15:01:34.541Z,25.90
2022-09-01T15:06:37.921Z,25.70
2022-09-01T15:11:44.090Z,25.70
2022-09-01T15:16:48.622Z,25.60
2022-09-01T15:21:51.530Z,25.60
2022-09-01T15:26:55.017Z,25.70
2022-09-01T15:31:59.296Z,25.70
2022-09-01T15:37:02.282Z,25.80
2022-09-01T15:42:05.662Z,25.70
2022-09-01T15:47:11.523Z,25.30
2022-09-01T15:52:14.464Z,25.30
2022-09-01T15:57:18.334Z,25.40
2022-09-01T16:02:26.357Z,25.50
2022-09-01T16:07:29.307Z,25.60
2022-09-01T16:12:35.923Z,25.60
2022-09-01T16:17:54.375Z,25.70
2022-09-01T16:23:11.615Z,25.90
2022-09-01T16:28:26.933Z,25.70
2022-09-01T16:38:53.325Z,25.40
2022-09-01T16:44:04.994Z,25.50
2022-09-01T16:49:19.518Z,25.40
2022-09-01T16:54:38.012Z,25.70
2022-09-01T16:59:55.741Z,25.80
2022-09-01T17:05:09.903Z,25.60
2022-09-01T17:10:23.280Z,25.40
2022-09-01T17:15:39.612Z,25.40
2022-09-01T17:20:57.990Z,25.30
2022-09-01T17:26:05.803Z,25.30
2022-09-01T17:31:18.670Z,24.70
2022-09-01T17:36:30.306Z,24.80
2022-09-01T17:41:39.545Z,24.90
2022-09-01T17:46:56.619Z,25.10
2022-09-01T17:52:14.077Z,25.10
2022-09-01T17:57:25.172Z,24.90
2022-09-01T18:03:09.604Z,24.30
2022-09-01T18:08:30.997Z,24.60
2022-09-01T18:13:54.120Z,24.50
2022-09-01T18:19:05.910Z,24.30
2022-09-01T18:24:20.204Z,24.30
2022-09-01T18:29:28.677Z,24.40
2022-09-01T18:35:13.639Z,24.20
2022-09-01T18:40:27.999Z,24.10
2022-09-01T18:45:54.361Z,24.00
2022-09-01T18:51:48.547Z,23.90
2022-09-01T18:57:06.801Z,23.90
2022-09-01T19:02:37.563Z,23.90
2022-09-01T19:07:52.969Z,23.80
2022-09-01T19:13:12.526Z,23.80
2022-09-01T19:18:29.873Z,23.60
2022-09-01T19:23:42.055Z,23.60
2022-09-01T19:28:50.351Z,23.50
2022-09-01T19:33:59.006Z,23.40
2022-09-01T19:39:02.103Z,23.40
2022-09-01T19:44:12.808Z,23.40
2022-09-01T19:49:29.016Z,23.40
2022-09-01T19:54:41.013Z,23.20
2022-09-01T19:59:56.630Z,23.20
2022-09-01T20:05:06.098Z,22.80
2022-09-01T20:10:21.609Z,22.90
2022-09-01T20:15:35.668Z,22.90
2022-09-01T20:20:44.857Z,22.90
2022-09-01T20:25:53.797Z,22.90
2022-09-01T20:31:03.242Z,22.30
2022-09-01T20:36:12.357Z,22.50
2022-09-01T20:41:20.392Z,22.40
2022-09-01T20:46:32.469Z,22.50
2022-09-01T20:51:42.554Z,22.20
2022-09-01T20:56:50.970Z,22.20
2022-09-01T21:02:01.675Z,22.20
2022-09-01T21:07:10.475Z,22.20
2022-09-01T21:12:26.997Z,22.10
2022-09-01T21:17:38.632Z,22.00
2022-09-01T21:22:41.574Z,21.50
2022-09-01T21:27:51.200Z,21.30
2022-09-01T21:32:56.974Z,21.70
2022-09-01T21:37:59.899Z,21.80
2022-09-01T21:43:07.394Z,21.80
2022-09-01T21:48:14.003Z,21.80
2022-09-01T21:53:17.102Z,21.80
2022-09-01T21:58:20.060Z,21.60
2022-09-01T22:03:24.340Z,21.50
2022-09-01T22:08:28.504Z,21.50
2022-09-01T22:13:31.526Z,21.50
2022-09-01T22:18:36.253Z,21.40
2022-09-01T22:23:40.277Z,21.10
2022-09-01T22:28:43.240Z,21.30
2022-09-01T22:33:47.874Z,21.40
2022-09-01T22:38:51.302Z,21.30
2022-09-01T22:43:54.726Z,21.30
2022-09-01T22:49:00.525Z,21.10
2022-09-01T22:54:03.415Z,21.20
2022-09-01T22:59:09.661Z,21.20
2022-09-01T23:04:15.672Z,21.20
2022-09-01T23:09:19.948Z,21.20
2022-09-01T23:14:23.119Z,20.70
2022-09-01T23:19:27.367Z,20.90
2022-09-01T23:24:30.371Z,20.60
2022-09-01T23:29:33.339Z,20.80
2022-09-01T23:34:39.132Z,20.80
2022-09-01T23:39:45.256Z,20.80
2022-09-01T23:44:48.151Z,20.60
2022-09-01T23:49:52.419Z,20.60
2022-09-01T23:54:55.521Z,20.60
2022-09-01T23:59:58.879Z,20.50
